sensor_id;sensor_type;location;lat;lon;timestamp;temperature;humidity
1700;DHT22;847;48.058;7.810;2023-02-12T00:01:13;0.80;98.60
1700;DHT22;847;48.058;7.810;2023-02-12T00:03:43;0.70;98.80
1700;DHT22;847;48.058;7.810;2023-02-12T00:06:11;0.70;98.90
1700;DHT22;847;48.058;7.810;2023-02-12T00:08:39;0.70;99.00
1700;DHT22;847;48.058;7.810;2023-02-12T00:11:08;0.70;99.00
1700;DHT22;847;48.058;7.810;2023-02-12T00:13:35;0.70;98.60
1700;DHT22;847;48.058;7.810;2023-02-12T00:16:07;0.60;99.00
1700;DHT22;847;48.058;7.810;2023-02-12T00:18:35;0.40;99.00
1700;DHT22;847;48.058;7.810;2023-02-12T00:21:03;0.30;99.00
1700;DHT22;847;48.058;7.810;2023-02-12T00:23:31;0.40;99.00
1700;DHT22;847;48.058;7.810;2023-02-12T00:25:58;0.60;99.00
1700;DHT22;847;48.058;7.810;2023-02-12T00:28:25;0.70;99.00
1700;DHT22;847;48.058;7.810;2023-02-12T00:30:53;0.70;99.00
1700;DHT22;847;48.058;7.810;2023-02-12T00:33:20;0.60;99.00
1700;DHT22;847;48.058;7.810;2023-02-12T00:35:54;0.60;99.00
1700;DHT22;847;48.058;7.810;2023-02-12T00:38:22;0.50;99.00
1700;DHT22;847;48.058;7.810;2023-02-12T00:40:50;0.50;99.00
1700;DHT22;847;48.058;7.810;2023-02-12T00:43:17;0.60;99.00
1700;DHT22;847;48.058;7.810;2023-02-12T00:45:44;0.50;99.00
1700;DHT22;847;48.058;7.810;2023-02-12T00:48:14;0.40;99.00
1700;DHT22;847;48.058;7.810;2023-02-12T00:50:43;0.40;99.00
1700;DHT22;847;48.058;7.810;2023-02-12T00:53:14;0.40;99.00
1700;DHT22;847;48.058;7.810;2023-02-12T00:55:41;0.30;99.00
1700;DHT22;847;48.058;7.810;2023-02-12T00:58:09;0.30;99.00
1700;DHT22;847;48.058;7.810;2023-02-12T01:00:36;0.40;99.00
1700;DHT22;847;48.058;7.810;2023-02-12T01:03:06;0.40;99.00
1700;DHT22;847;48.058;7.810;2023-02-12T01:05:33;0.30;99.00
1700;DHT22;847;48.058;7.810;2023-02-12T01:08:00;0.30;99.00
1700;DHT22;847;48.058;7.810;2023-02-12T01:10:28;0.10;99.00
1700;DHT22;847;48.058;7.810;2023-02-12T01:12:55;0.20;99.00
1700;DHT22;847;48.058;7.810;2023-02-12T01:15:24;0.20;99.00
1700;DHT22;847;48.058;7.810;2023-02-12T01:17:51;0.30;99.00
1700;DHT22;847;48.058;7.810;2023-02-12T01:20:20;0.40;99.00
1700;DHT22;847;48.058;7.810;2023-02-12T01:22:48;0.30;99.00
1700;DHT22;847;48.058;7.810;2023-02-12T01:25:15;0.30;99.00
1700;DHT22;847;48.058;7.810;2023-02-12T01:27:42;0.30;99.00
1700;DHT22;847;48.058;7.810;2023-02-12T01:30:11;0.30;99.00
1700;DHT22;847;48.058;7.810;2023-02-12T01:32:40;0.30;99.00
1700;DHT22;847;48.058;7.810;2023-02-12T01:35:08;0.30;99.00
1700;DHT22;847;48.058;7.810;2023-02-12T01:37:35;0.30;99.00
1700;DHT22;847;48.058;7.810;2023-02-12T01:40:02;0.20;99.00
1700;DHT22;847;48.058;7.810;2023-02-12T01:42:30;0.20;99.00
1700;DHT22;847;48.058;7.810;2023-02-12T01:45:31;0.10;99.00
1700;DHT22;847;48.058;7.810;2023-02-12T01:48:07;-0.10;99.00
1700;DHT22;847;48.058;7.810;2023-02-12T01:50:34;-0.20;99.00
1700;DHT22;847;48.058;7.810;2023-02-12T01:53:02;-0.20;99.00
1700;DHT22;847;48.058;7.810;2023-02-12T01:55:29;-0.10;99.00
1700;DHT22;847;48.058;7.810;2023-02-12T01:57:56;-0.10;99.00
1700;DHT22;847;48.058;7.810;2023-02-12T02:00:24;-0.10;99.00
1700;DHT22;847;48.058;7.810;2023-02-12T02:02:55;-0.10;99.00
1700;DHT22;847;48.058;7.810;2023-02-12T02:05:40;-0.10;99.00
1700;DHT22;847;48.058;7.810;2023-02-12T02:08:08;-0.10;99.00
1700;DHT22;847;48.058;7.810;2023-02-12T02:10:35;0.10;99.00
1700;DHT22;847;48.058;7.810;2023-02-12T02:13:02;0.10;99.00
1700;DHT22;847;48.058;7.810;2023-02-12T02:15:50;0.10;99.00
1700;DHT22;847;48.058;7.810;2023-02-12T02:18:23;0.10;99.00
1700;DHT22;847;48.058;7.810;2023-02-12T02:21:17;0.00;99.00
1700;DHT22;847;48.058;7.810;2023-02-12T02:27:21;-0.10;99.00
1700;DHT22;847;48.058;7.810;2023-02-12T02:30:13;-0.10;99.00
1700;DHT22;847;48.058;7.810;2023-02-12T02:32:49;-0.10;99.00
1700;DHT22;847;48.058;7.810;2023-02-12T02:35:25;-0.10;99.00
1700;DHT22;847;48.058;7.810;2023-02-12T02:38:03;-0.20;99.00
1700;DHT22;847;48.058;7.810;2023-02-12T02:40:38;-0.30;99.00
1700;DHT22;847;48.058;7.810;2023-02-12T02:43:09;-0.30;99.00
1700;DHT22;847;48.058;7.810;2023-02-12T02:45:47;-0.20;99.00
1700;DHT22;847;48.058;7.810;2023-02-12T02:48:17;-0.10;99.00
1700;DHT22;847;48.058;7.810;2023-02-12T02:50:48;-0.10;99.00
1700;DHT22;847;48.058;7.810;2023-02-12T02:53:19;-0.10;99.00
1700;DHT22;847;48.058;7.810;2023-02-12T02:55:50;-0.20;99.00
1700;DHT22;847;48.058;7.810;2023-02-12T02:58:25;-0.20;99.00
1700;DHT22;847;48.058;7.810;2023-02-12T03:00:57;-0.10;99.00
1700;DHT22;847;48.058;7.810;2023-02-12T03:03:31;-0.20;99.00
1700;DHT22;847;48.058;7.810;2023-02-12T03:06:03;-0.30;99.00
1700;DHT22;847;48.058;7.810;2023-02-12T03:08:35;-0.30;99.00
1700;DHT22;847;48.058;7.810;2023-02-12T03:11:09;-0.30;99.00
1700;DHT22;847;48.058;7.810;2023-02-12T03:13:41;-0.20;99.00
1700;DHT22;847;48.058;7.810;2023-02-12T03:16:15;-0.30;99.00
1700;DHT22;847;48.058;7.810;2023-02-12T03:18:49;-0.30;99.00
1700;DHT22;847;48.058;7.810;2023-02-12T03:21:21;-0.30;99.00
1700;DHT22;847;48.058;7.810;2023-02-12T03:23:56;-0.30;99.00
1700;DHT22;847;48.058;7.810;2023-02-12T03:26:26;-0.30;99.00
1700;DHT22;847;48.058;7.810;2023-02-12T03:28:59;-0.30;99.00
1700;DHT22;847;48.058;7.810;2023-02-12T03:31:32;-0.40;99.00
1700;DHT22;847;48.058;7.810;2023-02-12T03:34:06;-0.50;99.00
1700;DHT22;847;48.058;7.810;2023-02-12T03:36:40;-0.50;99.00
1700;DHT22;847;48.058;7.810;2023-02-12T03:39:11;-0.50;99.00
1700;DHT22;847;48.058;7.810;2023-02-12T03:41:42;-0.60;99.00
1700;DHT22;847;48.058;7.810;2023-02-12T03:44:16;-0.60;99.00
1700;DHT22;847;48.058;7.810;2023-02-12T03:46:53;-0.60;99.00
1700;DHT22;847;48.058;7.810;2023-02-12T03:49:25;-0.70;99.00
1700;DHT22;847;48.058;7.810;2023-02-12T03:51:52;-0.60;99.00
1700;DHT22;847;48.058;7.810;2023-02-12T03:54:20;-0.70;99.00
1700;DHT22;847;48.058;7.810;2023-02-12T03:56:51;-0.80;99.00
1700;DHT22;847;48.058;7.810;2023-02-12T03:59:19;-0.80;99.00
1700;DHT22;847;48.058;7.810;2023-02-12T04:01:49;-0.90;99.00
1700;DHT22;847;48.058;7.810;2023-02-12T04:04:17;-0.80;99.00
1700;DHT22;847;48.058;7.810;2023-02-12T04:06:48;-0.70;99.00
1700;DHT22;847;48.058;7.810;2023-02-12T04:09:16;-0.60;99.00
1700;DHT22;847;48.058;7.810;2023-02-12T04:11:58;-0.60;99.00
1700;DHT22;847;48.058;7.810;2023-02-12T04:14:35;-0.60;99.00
1700;DHT22;847;48.058;7.810;2023-02-12T04:17:14;-0.60;99.00
1700;DHT22;847;48.058;7.810;2023-02-12T04:19:52;-0.70;99.00
1700;DHT22;847;48.058;7.810;2023-02-12T04:22:30;-0.70;99.00
1700;DHT22;847;48.058;7.810;2023-02-12T04:25:07;-0.80;99.00
1700;DHT22;847;48.058;7.810;2023-02-12T04:27:40;-0.70;99.00
1700;DHT22;847;48.058;7.810;2023-02-12T04:30:12;-0.80;99.00
1700;DHT22;847;48.058;7.810;2023-02-12T04:32:45;-0.80;99.00
1700;DHT22;847;48.058;7.810;2023-02-12T04:35:18;-0.80;99.00
1700;DHT22;847;48.058;7.810;2023-02-12T04:37:50;-0.80;99.00
1700;DHT22;847;48.058;7.810;2023-02-12T04:40:19;-0.90;99.00
1700;DHT22;847;48.058;7.810;2023-02-12T04:42:48;-0.90;99.00
1700;DHT22;847;48.058;7.810;2023-02-12T04:45:18;-0.90;99.00
1700;DHT22;847;48.058;7.810;2023-02-12T04:47:48;-0.80;99.00
1700;DHT22;847;48.058;7.810;2023-02-12T04:50:15;-0.80;99.00
1700;DHT22;847;48.058;7.810;2023-02-12T04:52:42;-0.80;99.00
1700;DHT22;847;48.058;7.810;2023-02-12T04:55:08;-0.90;99.00
1700;DHT22;847;48.058;7.810;2023-02-12T04:57:35;-0.90;99.00
1700;DHT22;847;48.058;7.810;2023-02-12T05:00:03;-1.00;99.00
1700;DHT22;847;48.058;7.810;2023-02-12T05:02:30;-1.00;99.00
1700;DHT22;847;48.058;7.810;2023-02-12T05:04:58;-1.00;99.00
1700;DHT22;847;48.058;7.810;2023-02-12T05:07:25;-1.10;99.00
1700;DHT22;847;48.058;7.810;2023-02-12T05:09:52;-1.00;99.00
1700;DHT22;847;48.058;7.810;2023-02-12T05:12:19;-0.90;99.00
1700;DHT22;847;48.058;7.810;2023-02-12T05:14:45;-0.90;99.00
1700;DHT22;847;48.058;7.810;2023-02-12T05:17:12;-0.90;99.00
1700;DHT22;847;48.058;7.810;2023-02-12T05:19:39;-0.90;99.00
1700;DHT22;847;48.058;7.810;2023-02-12T05:22:07;-1.00;99.00
1700;DHT22;847;48.058;7.810;2023-02-12T05:24:34;-1.10;99.00
1700;DHT22;847;48.058;7.810;2023-02-12T05:27:01;-1.20;99.00
1700;DHT22;847;48.058;7.810;2023-02-12T05:29:27;-1.10;99.00
1700;DHT22;847;48.058;7.810;2023-02-12T05:31:54;-1.10;99.00
1700;DHT22;847;48.058;7.810;2023-02-12T05:34:21;-1.10;99.00
1700;DHT22;847;48.058;7.810;2023-02-12T05:36:48;-1.10;99.00
1700;DHT22;847;48.058;7.810;2023-02-12T05:39:16;-1.00;99.00
1700;DHT22;847;48.058;7.810;2023-02-12T05:41:43;-1.00;99.00
1700;DHT22;847;48.058;7.810;2023-02-12T05:44:09;-0.90;99.00
1700;DHT22;847;48.058;7.810;2023-02-12T05:46:37;-0.90;99.00
1700;DHT22;847;48.058;7.810;2023-02-12T05:49:04;-0.90;99.00
1700;DHT22;847;48.058;7.810;2023-02-12T05:51:31;-1.00;99.00
1700;DHT22;847;48.058;7.810;2023-02-12T05:53:59;-1.00;99.00
1700;DHT22;847;48.058;7.810;2023-02-12T05:56:30;-1.10;99.00
1700;DHT22;847;48.058;7.810;2023-02-12T05:58:59;-1.00;99.00
1700;DHT22;847;48.058;7.810;2023-02-12T06:01:31;-1.10;99.00
1700;DHT22;847;48.058;7.810;2023-02-12T06:03:59;-1.10;99.00
1700;DHT22;847;48.058;7.810;2023-02-12T06:06:27;-1.20;99.00
1700;DHT22;847;48.058;7.810;2023-02-12T06:08:54;-1.30;99.00
1700;DHT22;847;48.058;7.810;2023-02-12T06:11:22;-1.30;99.00
1700;DHT22;847;48.058;7.810;2023-02-12T06:13:50;-1.30;99.00
1700;DHT22;847;48.058;7.810;2023-02-12T06:16:19;-1.30;99.00
1700;DHT22;847;48.058;7.810;2023-02-12T06:18:46;-1.30;99.00
1700;DHT22;847;48.058;7.810;2023-02-12T06:21:14;-1.30;99.00
1700;DHT22;847;48.058;7.810;2023-02-12T06:23:41;-1.30;99.00
1700;DHT22;847;48.058;7.810;2023-02-12T06:26:08;-1.30;99.00
1700;DHT22;847;48.058;7.810;2023-02-12T06:28:36;-1.20;99.00
1700;DHT22;847;48.058;7.810;2023-02-12T06:31:05;-1.20;99.00
1700;DHT22;847;48.058;7.810;2023-02-12T06:33:41;-1.20;99.00
1700;DHT22;847;48.058;7.810;2023-02-12T06:36:08;-1.30;99.00
1700;DHT22;847;48.058;7.810;2023-02-12T06:38:35;-1.30;99.00
1700;DHT22;847;48.058;7.810;2023-02-12T06:41:02;-1.30;99.00
1700;DHT22;847;48.058;7.810;2023-02-12T06:43:28;-1.30;99.00
1700;DHT22;847;48.058;7.810;2023-02-12T06:45:58;-1.30;99.00
1700;DHT22;847;48.058;7.810;2023-02-12T06:48:27;-1.30;99.00
1700;DHT22;847;48.058;7.810;2023-02-12T06:50:53;-1.30;99.00
1700;DHT22;847;48.058;7.810;2023-02-12T06:53:20;-1.30;99.00
1700;DHT22;847;48.058;7.810;2023-02-12T06:55:47;-1.30;99.00
1700;DHT22;847;48.058;7.810;2023-02-12T06:58:14;-1.30;99.00
1700;DHT22;847;48.058;7.810;2023-02-12T07:00:40;-1.30;99.00
1700;DHT22;847;48.058;7.810;2023-02-12T07:03:07;-1.30;99.00
1700;DHT22;847;48.058;7.810;2023-02-12T07:05:38;-1.30;99.00
1700;DHT22;847;48.058;7.810;2023-02-12T07:08:05;-1.30;99.00
1700;DHT22;847;48.058;7.810;2023-02-12T07:10:31;-1.20;99.00
1700;DHT22;847;48.058;7.810;2023-02-12T07:12:58;-1.20;99.00
1700;DHT22;847;48.058;7.810;2023-02-12T07:15:25;-1.20;99.00
1700;DHT22;847;48.058;7.810;2023-02-12T07:17:52;-1.30;99.00
1700;DHT22;847;48.058;7.810;2023-02-12T07:20:19;-1.30;99.00
1700;DHT22;847;48.058;7.810;2023-02-12T07:22:47;-1.40;99.00
1700;DHT22;847;48.058;7.810;2023-02-12T07:25:18;-1.30;99.00
1700;DHT22;847;48.058;7.810;2023-02-12T07:30:36;-1.20;99.00
1700;DHT22;847;48.058;7.810;2023-02-12T07:33:03;-1.20;99.00
1700;DHT22;847;48.058;7.810;2023-02-12T07:35:30;-1.20;99.00
1700;DHT22;847;48.058;7.810;2023-02-12T07:37:58;-1.20;99.00
1700;DHT22;847;48.058;7.810;2023-02-12T07:40:25;-1.20;99.00
1700;DHT22;847;48.058;7.810;2023-02-12T07:42:54;-1.20;99.00
1700;DHT22;847;48.058;7.810;2023-02-12T07:45:21;-1.10;99.00
1700;DHT22;847;48.058;7.810;2023-02-12T07:47:48;-1.00;99.00
1700;DHT22;847;48.058;7.810;2023-02-12T07:50:15;-1.00;99.00
1700;DHT22;847;48.058;7.810;2023-02-12T07:52:42;-1.00;99.00
1700;DHT22;847;48.058;7.810;2023-02-12T07:55:10;-0.90;99.00
1700;DHT22;847;48.058;7.810;2023-02-12T07:57:37;-0.80;99.00
1700;DHT22;847;48.058;7.810;2023-02-12T08:00:05;-0.70;99.00
1700;DHT22;847;48.058;7.810;2023-02-12T08:02:31;-0.60;99.00
1700;DHT22;847;48.058;7.810;2023-02-12T08:04:58;-0.60;99.00
1700;DHT22;847;48.058;7.810;2023-02-12T08:07:25;-0.60;99.00
1700;DHT22;847;48.058;7.810;2023-02-12T08:09:52;-0.50;99.00
1700;DHT22;847;48.058;7.810;2023-02-12T08:12:20;-0.50;99.00
1700;DHT22;847;48.058;7.810;2023-02-12T08:14:48;-0.50;99.00
1700;DHT22;847;48.058;7.810;2023-02-12T08:17:14;-0.40;99.00
1700;DHT22;847;48.058;7.810;2023-02-12T08:19:41;-0.30;99.00
1700;DHT22;847;48.058;7.810;2023-02-12T08:22:08;-0.20;99.00
1700;DHT22;847;48.058;7.810;2023-02-12T08:24:35;-0.20;99.00
1700;DHT22;847;48.058;7.810;2023-02-12T08:27:01;-0.20;99.00
1700;DHT22;847;48.058;7.810;2023-02-12T08:29:31;-0.10;99.00
1700;DHT22;847;48.058;7.810;2023-02-12T08:32:00;0.00;99.00
1700;DHT22;847;48.058;7.810;2023-02-12T08:34:29;0.10;99.00
1700;DHT22;847;48.058;7.810;2023-02-12T08:36:56;0.20;99.00
1700;DHT22;847;48.058;7.810;2023-02-12T08:39:25;0.20;99.00
1700;DHT22;847;48.058;7.810;2023-02-12T08:41:53;0.30;99.00
1700;DHT22;847;48.058;7.810;2023-02-12T08:44:21;0.50;99.00
1700;DHT22;847;48.058;7.810;2023-02-12T08:46:51;0.60;99.00
1700;DHT22;847;48.058;7.810;2023-02-12T08:49:21;0.70;99.00
1700;DHT22;847;48.058;7.810;2023-02-12T08:51:50;0.70;99.00
1700;DHT22;847;48.058;7.810;2023-02-12T08:54:19;0.90;99.00
1700;DHT22;847;48.058;7.810;2023-02-12T08:56:46;0.90;99.00
1700;DHT22;847;48.058;7.810;2023-02-12T08:59:14;1.00;99.00
1700;DHT22;847;48.058;7.810;2023-02-12T09:01:42;1.10;99.00
1700;DHT22;847;48.058;7.810;2023-02-12T09:04:13;1.20;99.00
1700;DHT22;847;48.058;7.810;2023-02-12T09:06:42;1.20;99.00
1700;DHT22;847;48.058;7.810;2023-02-12T09:09:09;1.30;99.00
1700;DHT22;847;48.058;7.810;2023-02-12T09:11:36;1.30;99.00
1700;DHT22;847;48.058;7.810;2023-02-12T09:14:05;1.40;99.00
1700;DHT22;847;48.058;7.810;2023-02-12T09:16:34;1.50;99.00
1700;DHT22;847;48.058;7.810;2023-02-12T09:19:02;1.60;99.00
1700;DHT22;847;48.058;7.810;2023-02-12T09:21:30;1.60;99.00
1700;DHT22;847;48.058;7.810;2023-02-12T09:23:57;1.70;99.00
1700;DHT22;847;48.058;7.810;2023-02-12T09:26:24;1.80;99.00
1700;DHT22;847;48.058;7.810;2023-02-12T09:28:52;1.80;99.00
1700;DHT22;847;48.058;7.810;2023-02-12T09:31:22;1.90;99.00
1700;DHT22;847;48.058;7.810;2023-02-12T09:33:51;2.00;99.00
1700;DHT22;847;48.058;7.810;2023-02-12T09:36:19;2.10;99.00
1700;DHT22;847;48.058;7.810;2023-02-12T09:38:47;2.20;99.00
1700;DHT22;847;48.058;7.810;2023-02-12T09:41:36;2.30;99.00
1700;DHT22;847;48.058;7.810;2023-02-12T09:44:11;2.30;99.00
1700;DHT22;847;48.058;7.810;2023-02-12T09:46:45;2.40;99.00
1700;DHT22;847;48.058;7.810;2023-02-12T09:49:20;2.40;99.00
1700;DHT22;847;48.058;7.810;2023-02-12T09:51:50;2.50;99.00
1700;DHT22;847;48.058;7.810;2023-02-12T09:54:22;2.60;99.00
1700;DHT22;847;48.058;7.810;2023-02-12T09:56:52;2.60;99.00
1700;DHT22;847;48.058;7.810;2023-02-12T09:59:27;2.70;99.00
1700;DHT22;847;48.058;7.810;2023-02-12T10:01:56;2.70;99.00
1700;DHT22;847;48.058;7.810;2023-02-12T10:04:24;2.80;99.00
1700;DHT22;847;48.058;7.810;2023-02-12T10:06:59;2.80;99.00
1700;DHT22;847;48.058;7.810;2023-02-12T10:09:39;3.00;99.00
1700;DHT22;847;48.058;7.810;2023-02-12T10:12:14;3.00;99.00
1700;DHT22;847;48.058;7.810;2023-02-12T10:15:10;3.10;99.00
1700;DHT22;847;48.058;7.810;2023-02-12T10:17:41;3.10;99.00
1700;DHT22;847;48.058;7.810;2023-02-12T10:20:30;3.20;99.00
1700;DHT22;847;48.058;7.810;2023-02-12T10:23:08;3.30;99.00
1700;DHT22;847;48.058;7.810;2023-02-12T10:25:44;3.40;99.00
1700;DHT22;847;48.058;7.810;2023-02-12T10:28:16;3.50;99.00
1700;DHT22;847;48.058;7.810;2023-02-12T10:30:48;3.50;99.00
1700;DHT22;847;48.058;7.810;2023-02-12T10:33:20;3.50;99.00
1700;DHT22;847;48.058;7.810;2023-02-12T10:35:53;3.60;99.00
1700;DHT22;847;48.058;7.810;2023-02-12T10:38:26;3.70;99.00
1700;DHT22;847;48.058;7.810;2023-02-12T10:40:55;3.60;99.00
1700;DHT22;847;48.058;7.810;2023-02-12T10:43:26;3.70;99.00
1700;DHT22;847;48.058;7.810;2023-02-12T10:45:53;3.90;99.00
1700;DHT22;847;48.058;7.810;2023-02-12T10:48:22;4.00;99.00
1700;DHT22;847;48.058;7.810;2023-02-12T10:51:01;4.00;99.00
1700;DHT22;847;48.058;7.810;2023-02-12T10:53:32;4.00;99.00
1700;DHT22;847;48.058;7.810;2023-02-12T10:56:13;4.10;99.00
1700;DHT22;847;48.058;7.810;2023-02-12T10:58:51;4.30;99.00
1700;DHT22;847;48.058;7.810;2023-02-12T11:01:21;4.40;99.00
1700;DHT22;847;48.058;7.810;2023-02-12T11:03:50;4.40;99.00
1700;DHT22;847;48.058;7.810;2023-02-12T11:06:19;4.40;99.00
1700;DHT22;847;48.058;7.810;2023-02-12T11:08:47;4.40;99.00
1700;DHT22;847;48.058;7.810;2023-02-12T11:11:18;4.50;98.90
1700;DHT22;847;48.058;7.810;2023-02-12T11:13:53;4.50;98.50
1700;DHT22;847;48.058;7.810;2023-02-12T11:16:29;4.70;99.00
1700;DHT22;847;48.058;7.810;2023-02-12T11:19:00;4.70;98.80
1700;DHT22;847;48.058;7.810;2023-02-12T11:21:28;4.70;99.00
1700;DHT22;847;48.058;7.810;2023-02-12T11:24:21;4.70;99.00
1700;DHT22;847;48.058;7.810;2023-02-12T11:26:51;4.80;99.00
1700;DHT22;847;48.058;7.810;2023-02-12T11:29:20;4.80;99.00
1700;DHT22;847;48.058;7.810;2023-02-12T11:32:00;4.80;99.00
1700;DHT22;847;48.058;7.810;2023-02-12T11:34:28;4.90;99.00
1700;DHT22;847;48.058;7.810;2023-02-12T11:36:56;5.00;98.70
1700;DHT22;847;48.058;7.810;2023-02-12T11:39:26;5.10;98.00
1700;DHT22;847;48.058;7.810;2023-02-12T11:41:58;5.20;98.40
1700;DHT22;847;48.058;7.810;2023-02-12T11:44:28;5.20;98.40
1700;DHT22;847;48.058;7.810;2023-02-12T11:46:59;5.20;98.50
1700;DHT22;847;48.058;7.810;2023-02-12T11:49:30;5.20;99.00
1700;DHT22;847;48.058;7.810;2023-02-12T11:52:00;5.30;98.90
1700;DHT22;847;48.058;7.810;2023-02-12T11:54:31;5.40;99.00
1700;DHT22;847;48.058;7.810;2023-02-12T11:57:01;5.40;99.00
1700;DHT22;847;48.058;7.810;2023-02-12T11:59:32;5.60;98.20
1700;DHT22;847;48.058;7.810;2023-02-12T12:02:07;5.60;98.10
1700;DHT22;847;48.058;7.810;2023-02-12T12:04:39;5.60;98.00
1700;DHT22;847;48.058;7.810;2023-02-12T12:07:12;5.70;98.10
1700;DHT22;847;48.058;7.810;2023-02-12T12:09:44;5.70;98.50
1700;DHT22;847;48.058;7.810;2023-02-12T12:12:18;5.70;98.20
1700;DHT22;847;48.058;7.810;2023-02-12T12:14:50;5.80;98.20
1700;DHT22;847;48.058;7.810;2023-02-12T12:17:40;5.80;98.20
1700;DHT22;847;48.058;7.810;2023-02-12T12:20:31;5.80;98.60
1700;DHT22;847;48.058;7.810;2023-02-12T12:23:05;6.00;98.50
1700;DHT22;847;48.058;7.810;2023-02-12T12:25:42;6.00;98.00
1700;DHT22;847;48.058;7.810;2023-02-12T12:28:24;6.10;98.00
1700;DHT22;847;48.058;7.810;2023-02-12T12:31:02;6.10;98.20
1700;DHT22;847;48.058;7.810;2023-02-12T12:33:36;6.20;98.10
1700;DHT22;847;48.058;7.810;2023-02-12T12:39:00;6.30;98.00
1700;DHT22;847;48.058;7.810;2023-02-12T12:41:34;6.40;97.90
1700;DHT22;847;48.058;7.810;2023-02-12T12:44:21;6.50;98.20
1700;DHT22;847;48.058;7.810;2023-02-12T12:46:55;6.70;96.90
1700;DHT22;847;48.058;7.810;2023-02-12T12:49:46;6.70;96.80
1700;DHT22;847;48.058;7.810;2023-02-12T12:52:47;6.80;96.30
1700;DHT22;847;48.058;7.810;2023-02-12T12:55:28;6.70;96.10
1700;DHT22;847;48.058;7.810;2023-02-12T12:58:07;6.70;96.20
1700;DHT22;847;48.058;7.810;2023-02-12T13:00:51;6.70;96.80
1700;DHT22;847;48.058;7.810;2023-02-12T13:03:50;6.70;97.30
1700;DHT22;847;48.058;7.810;2023-02-12T13:06:34;6.70;97.40
1700;DHT22;847;48.058;7.810;2023-02-12T13:09:23;6.80;97.40
1700;DHT22;847;48.058;7.810;2023-02-12T13:12:12;6.90;97.50
1700;DHT22;847;48.058;7.810;2023-02-12T13:14:47;6.90;97.40
1700;DHT22;847;48.058;7.810;2023-02-12T13:17:24;6.90;97.40
1700;DHT22;847;48.058;7.810;2023-02-12T13:20:01;6.90;97.90
1700;DHT22;847;48.058;7.810;2023-02-12T13:22:35;7.00;98.30
1700;DHT22;847;48.058;7.810;2023-02-12T13:25:15;7.10;98.90
1700;DHT22;847;48.058;7.810;2023-02-12T13:27:45;7.20;97.80
1700;DHT22;847;48.058;7.810;2023-02-12T13:30:19;7.40;98.20
1700;DHT22;847;48.058;7.810;2023-02-12T13:32:57;7.50;97.30
1700;DHT22;847;48.058;7.810;2023-02-12T13:35:28;7.60;97.20
1700;DHT22;847;48.058;7.810;2023-02-12T13:37:56;7.60;96.50
1700;DHT22;847;48.058;7.810;2023-02-12T13:40:26;7.70;97.00
1700;DHT22;847;48.058;7.810;2023-02-12T13:42:58;7.50;96.90
1700;DHT22;847;48.058;7.810;2023-02-12T13:45:36;7.60;97.80
1700;DHT22;847;48.058;7.810;2023-02-12T13:48:22;7.80;97.20
1700;DHT22;847;48.058;7.810;2023-02-12T13:51:00;7.80;96.20
1700;DHT22;847;48.058;7.810;2023-02-12T13:53:36;7.80;95.90
1700;DHT22;847;48.058;7.810;2023-02-12T13:56:18;7.80;96.10
1700;DHT22;847;48.058;7.810;2023-02-12T13:58:52;7.80;96.10
1700;DHT22;847;48.058;7.810;2023-02-12T14:01:40;7.80;95.90
1700;DHT22;847;48.058;7.810;2023-02-12T14:04:20;7.90;96.00
1700;DHT22;847;48.058;7.810;2023-02-12T14:06:53;7.90;96.30
1700;DHT22;847;48.058;7.810;2023-02-12T14:09:25;7.90;96.70
1700;DHT22;847;48.058;7.810;2023-02-12T14:11:54;7.90;96.90
1700;DHT22;847;48.058;7.810;2023-02-12T14:14:27;7.90;97.10
1700;DHT22;847;48.058;7.810;2023-02-12T14:16:55;7.90;96.80
1700;DHT22;847;48.058;7.810;2023-02-12T14:19:58;8.00;96.70
1700;DHT22;847;48.058;7.810;2023-02-12T14:22:56;8.00;96.80
1700;DHT22;847;48.058;7.810;2023-02-12T14:25:37;8.00;96.90
1700;DHT22;847;48.058;7.810;2023-02-12T14:28:09;8.00;97.00
1700;DHT22;847;48.058;7.810;2023-02-12T14:30:39;8.00;96.90
1700;DHT22;847;48.058;7.810;2023-02-12T14:33:18;8.10;97.00
1700;DHT22;847;48.058;7.810;2023-02-12T14:35:48;8.10;97.10
1700;DHT22;847;48.058;7.810;2023-02-12T14:41:30;8.20;97.10
1700;DHT22;847;48.058;7.810;2023-02-12T14:50:28;8.30;97.10
1700;DHT22;847;48.058;7.810;2023-02-12T14:53:07;8.40;96.80
1700;DHT22;847;48.058;7.810;2023-02-12T14:55:39;8.40;96.70
1700;DHT22;847;48.058;7.810;2023-02-12T14:58:17;8.40;96.80
1700;DHT22;847;48.058;7.810;2023-02-12T15:00:46;8.40;96.70
1700;DHT22;847;48.058;7.810;2023-02-12T15:03:18;8.40;96.80
1700;DHT22;847;48.058;7.810;2023-02-12T15:05:53;8.40;96.90
1700;DHT22;847;48.058;7.810;2023-02-12T15:08:27;8.30;97.10
1700;DHT22;847;48.058;7.810;2023-02-12T15:11:02;8.40;97.20
1700;DHT22;847;48.058;7.810;2023-02-12T15:13:37;8.40;97.20
1700;DHT22;847;48.058;7.810;2023-02-12T15:16:15;8.40;97.20
1700;DHT22;847;48.058;7.810;2023-02-12T15:18:51;8.50;97.10
1700;DHT22;847;48.058;7.810;2023-02-12T15:21:21;8.50;96.90
1700;DHT22;847;48.058;7.810;2023-02-12T15:24:01;8.50;97.00
1700;DHT22;847;48.058;7.810;2023-02-12T15:26:30;8.60;96.80
1700;DHT22;847;48.058;7.810;2023-02-12T15:28:59;8.60;97.00
1700;DHT22;847;48.058;7.810;2023-02-12T15:31:28;8.60;97.10
1700;DHT22;847;48.058;7.810;2023-02-12T15:33:56;8.60;97.00
1700;DHT22;847;48.058;7.810;2023-02-12T15:36:26;8.50;97.00
1700;DHT22;847;48.058;7.810;2023-02-12T15:38:54;8.50;97.00
1700;DHT22;847;48.058;7.810;2023-02-12T15:41:33;8.60;96.90
1700;DHT22;847;48.058;7.810;2023-02-12T15:44:02;8.60;96.90
1700;DHT22;847;48.058;7.810;2023-02-12T15:46:29;8.60;96.90
1700;DHT22;847;48.058;7.810;2023-02-12T15:48:56;8.60;96.80
1700;DHT22;847;48.058;7.810;2023-02-12T15:51:27;8.60;96.90
1700;DHT22;847;48.058;7.810;2023-02-12T15:53:55;8.60;96.50
1700;DHT22;847;48.058;7.810;2023-02-12T15:56:24;8.70;96.30
1700;DHT22;847;48.058;7.810;2023-02-12T15:58:54;8.70;96.50
1700;DHT22;847;48.058;7.810;2023-02-12T16:01:23;8.60;96.50
1700;DHT22;847;48.058;7.810;2023-02-12T16:03:51;8.50;97.20
1700;DHT22;847;48.058;7.810;2023-02-12T16:06:20;8.50;97.00
1700;DHT22;847;48.058;7.810;2023-02-12T16:08:53;8.50;97.10
1700;DHT22;847;48.058;7.810;2023-02-12T16:11:22;8.40;97.00
1700;DHT22;847;48.058;7.810;2023-02-12T16:13:51;8.40;96.80
1700;DHT22;847;48.058;7.810;2023-02-12T16:16:22;8.30;96.90
1700;DHT22;847;48.058;7.810;2023-02-12T16:19:06;8.30;97.00
1700;DHT22;847;48.058;7.810;2023-02-12T16:21:35;8.20;97.40
1700;DHT22;847;48.058;7.810;2023-02-12T16:24:03;8.20;97.30
1700;DHT22;847;48.058;7.810;2023-02-12T16:26:31;8.20;97.50
1700;DHT22;847;48.058;7.810;2023-02-12T16:28:58;8.20;97.60
1700;DHT22;847;48.058;7.810;2023-02-12T16:31:26;8.10;97.60
1700;DHT22;847;48.058;7.810;2023-02-12T16:33:54;8.10;97.30
1700;DHT22;847;48.058;7.810;2023-02-12T16:36:29;8.00;97.20
1700;DHT22;847;48.058;7.810;2023-02-12T16:39:02;7.90;97.40
1700;DHT22;847;48.058;7.810;2023-02-12T16:41:30;7.90;97.30
1700;DHT22;847;48.058;7.810;2023-02-12T16:44:19;7.80;97.40
1700;DHT22;847;48.058;7.810;2023-02-12T16:46:50;7.70;97.60
1700;DHT22;847;48.058;7.810;2023-02-12T16:49:19;7.60;97.70
1700;DHT22;847;48.058;7.810;2023-02-12T16:51:47;7.60;97.80
1700;DHT22;847;48.058;7.810;2023-02-12T16:54:28;7.50;97.70
1700;DHT22;847;48.058;7.810;2023-02-12T16:56:55;7.40;97.70
1700;DHT22;847;48.058;7.810;2023-02-12T16:59:22;7.30;98.20
1700;DHT22;847;48.058;7.810;2023-02-12T17:01:58;7.10;98.20
1700;DHT22;847;48.058;7.810;2023-02-12T17:04:25;7.10;98.40
1700;DHT22;847;48.058;7.810;2023-02-12T17:06:52;7.10;98.20
1700;DHT22;847;48.058;7.810;2023-02-12T17:09:19;7.00;98.10
1700;DHT22;847;48.058;7.810;2023-02-12T17:11:46;6.90;98.40
1700;DHT22;847;48.058;7.810;2023-02-12T17:14:14;6.80;98.60